createdAt,value
2023-01-21T00:01:14.865Z,46.17
2023-01-21T00:03:42.616Z,48.65
2023-01-21T00:06:10.384Z,45.25
2023-01-21T00:08:37.490Z,50.17
2023-01-21T00:11:09.594Z,53.00
2023-01-21T00:13:37.480Z,39.57
2023-01-21T00:16:06.285Z,48.00
2023-01-21T00:18:34.500Z,50.10
2023-01-21T00:21:01.989Z,45.70
2023-01-21T00:23:29.373Z,52.67
2023-01-21T00:26:05.874Z,46.80
2023-01-21T00:28:35.990Z,46.75
2023-01-21T00:31:07.356Z,51.08
2023-01-21T00:33:36.462Z,45.65
2023-01-21T00:36:05.098Z,47.03
2023-01-21T00:38:32.719Z,43.17
2023-01-21T00:41:05.815Z,51.33
2023-01-21T00:43:36.289Z,46.08
2023-01-21T00:46:03.428Z,46.40
2023-01-21T00:48:30.293Z,45.75
2023-01-21T00:51:00.688Z,42.80
2023-01-21T00:53:31.487Z,48.63
2023-01-21T00:56:07.172Z,41.83
2023-01-21T00:58:34.733Z,41.97
2023-01-21T01:01:07.812Z,42.70
2023-01-21T01:06:16.690Z,43.15
2023-01-21T01:08:45.359Z,39.30
2023-01-21T01:11:14.048Z,38.80
2023-01-21T01:13:41.297Z,41.03
2023-01-21T01:16:10.534Z,42.53
2023-01-21T01:18:38.494Z,37.47
2023-01-21T01:21:06.787Z,41.60
2023-01-21T01:23:33.887Z,41.95
2023-01-21T01:26:07.681Z,40.08
2023-01-21T01:28:35.263Z,45.40
2023-01-21T01:31:07.184Z,41.40
2023-01-21T01:33:35.392Z,32.17
2023-01-21T01:36:25.567Z,41.65
2023-01-21T01:38:54.473Z,38.47
2023-01-21T01:41:29.809Z,38.38
2023-01-21T01:44:20.815Z,40.28
2023-01-21T01:46:47.790Z,41.92
2023-01-21T01:49:21.469Z,39.75
2023-01-21T01:51:56.111Z,40.50
2023-01-21T01:54:30.070Z,38.97
2023-01-21T01:57:01.900Z,38.78
2023-01-21T01:59:31.831Z,39.30
2023-01-21T02:02:09.908Z,36.30
2023-01-21T02:04:47.991Z,34.58
2023-01-21T02:07:17.559Z,36.15
2023-01-21T02:09:44.592Z,41.72
2023-01-21T02:12:11.933Z,40.65
2023-01-21T02:14:43.192Z,42.08
2023-01-21T02:17:44.872Z,38.67
2023-01-21T02:20:50.125Z,39.15
2023-01-21T02:24:10.155Z,32.13
2023-01-21T02:26:53.517Z,36.45
2023-01-21T02:30:00.627Z,33.88
2023-01-21T02:33:04.439Z,31.65
2023-01-21T02:36:04.517Z,33.13
2023-01-21T02:39:20.413Z,31.45
2023-01-21T02:42:07.827Z,30.17
2023-01-21T02:44:48.523Z,26.30
2023-01-21T02:47:32.342Z,27.33
2023-01-21T02:50:08.504Z,24.83
2023-01-21T02:52:35.357Z,25.88
2023-01-21T02:55:04.089Z,25.52
2023-01-21T02:57:50.071Z,22.92
2023-01-21T03:00:31.876Z,22.75
2023-01-21T03:03:32.832Z,21.83
2023-01-21T03:06:34.062Z,19.02
2023-01-21T03:09:27.769Z,16.15
2023-01-21T03:12:05.608Z,13.60
2023-01-21T03:15:03.270Z,15.50
2023-01-21T03:17:56.893Z,12.02
2023-01-21T03:20:36.540Z,10.60
2023-01-21T03:23:12.056Z,14.73
2023-01-21T03:25:41.093Z,9.52
2023-01-21T03:28:21.086Z,11.80
2023-01-21T03:30:58.578Z,12.00
2023-01-21T03:33:29.043Z,19.60
2023-01-21T03:35:59.167Z,14.60
2023-01-21T03:38:36.467Z,15.15
2023-01-21T03:41:17.189Z,14.98
2023-01-21T03:43:45.628Z,13.23
2023-01-21T03:47:14.178Z,12.50
2023-01-21T03:49:52.609Z,12.00
2023-01-21T03:52:22.859Z,13.52
2023-01-21T03:54:49.833Z,12.50
2023-01-21T03:57:16.705Z,10.90
2023-01-21T03:59:44.678Z,10.88
2023-01-21T04:02:12.135Z,12.98
2023-01-21T04:04:39.078Z,10.50
2023-01-21T04:07:06.013Z,9.73
2023-01-21T04:09:32.884Z,11.77
2023-01-21T04:12:00.584Z,10.15
2023-01-21T04:14:27.583Z,9.85
2023-01-21T04:16:54.625Z,10.85
2023-01-21T04:19:21.713Z,11.68
2023-01-21T04:21:48.697Z,11.10
2023-01-21T04:24:15.896Z,8.38
2023-01-21T04:26:42.877Z,11.05
2023-01-21T04:29:09.724Z,10.65
2023-01-21T04:31:36.700Z,9.05
2023-01-21T04:34:03.669Z,13.00
2023-01-21T04:36:30.627Z,10.93
2023-01-21T04:38:57.544Z,14.02
2023-01-21T04:41:25.555Z,6.35
2023-01-21T04:43:52.749Z,8.25
2023-01-21T04:46:19.755Z,8.45
2023-01-21T04:48:46.824Z,10.43
2023-01-21T04:51:13.786Z,11.35
2023-01-21T04:53:40.683Z,4.22
2023-01-21T04:56:07.903Z,7.47
2023-01-21T04:58:35.003Z,12.38
2023-01-21T05:01:01.973Z,14.20
2023-01-21T05:03:28.933Z,13.48
2023-01-21T05:05:55.811Z,11.07
2023-01-21T05:08:22.675Z,7.13
2023-01-21T05:10:49.649Z,9.48
2023-01-21T05:13:16.503Z,8.05
2023-01-21T05:15:43.446Z,6.07
2023-01-21T05:18:11.537Z,11.05
2023-01-21T05:20:38.529Z,8.93
2023-01-21T05:23:05.388Z,7.20
2023-01-21T05:25:32.418Z,8.07
2023-01-21T05:27:59.254Z,9.07
2023-01-21T05:30:26.169Z,9.35
2023-01-21T05:32:54.396Z,9.18
2023-01-21T05:35:23.373Z,6.80
2023-01-21T05:37:50.319Z,8.05
2023-01-21T05:40:18.551Z,8.25
2023-01-21T05:42:46.683Z,7.50
2023-01-21T05:45:14.832Z,8.45
2023-01-21T05:47:42.176Z,8.23
2023-01-21T05:50:10.898Z,9.55
2023-01-21T05:52:37.911Z,9.57
2023-01-21T05:55:05.575Z,6.53
2023-01-21T05:57:32.837Z,6.95
2023-01-21T05:59:59.967Z,8.50
2023-01-21T06:02:27.417Z,7.18
2023-01-21T06:04:54.290Z,7.68
2023-01-21T06:07:21.201Z,9.35
2023-01-21T06:09:48.165Z,8.20
2023-01-21T06:12:15.065Z,8.85
2023-01-21T06:14:42.066Z,9.05
2023-01-21T06:17:08.934Z,11.05
2023-01-21T06:19:36.217Z,9.57
2023-01-21T06:22:03.136Z,7.97
2023-01-21T06:24:30.047Z,6.85
2023-01-21T06:26:57.053Z,9.43
2023-01-21T06:29:23.927Z,11.43
2023-01-21T06:31:50.930Z,8.63
2023-01-21T06:34:17.865Z,7.90
2023-01-21T06:36:44.857Z,8.23
2023-01-21T06:39:11.924Z,9.43
2023-01-21T06:41:39.466Z,7.60
2023-01-21T06:44:06.634Z,12.63
2023-01-21T06:46:34.013Z,6.25
2023-01-21T06:49:01.102Z,6.38
2023-01-21T06:51:28.091Z,6.53
2023-01-21T06:53:55.531Z,7.38
2023-01-21T06:56:22.682Z,10.85
2023-01-21T06:58:49.608Z,8.48
2023-01-21T07:01:16.535Z,12.00
2023-01-21T07:03:44.329Z,8.90
2023-01-21T07:06:11.562Z,5.88
2023-01-21T07:08:38.583Z,9.70
2023-01-21T07:11:05.643Z,8.70
2023-01-21T07:13:32.620Z,8.65
2023-01-21T07:16:04.028Z,8.35
2023-01-21T07:18:32.093Z,8.02
2023-01-21T07:20:59.078Z,9.05
2023-01-21T07:23:26.012Z,9.02
2023-01-21T07:25:52.903Z,10.43
2023-01-21T07:28:19.951Z,10.23
2023-01-21T07:30:46.894Z,10.50
2023-01-21T07:33:14.130Z,7.88
2023-01-21T07:35:41.018Z,8.73
2023-01-21T07:38:08.074Z,13.20
2023-01-21T07:40:35.060Z,12.93
2023-01-21T07:43:02.019Z,9.32
2023-01-21T07:45:28.953Z,9.73
2023-01-21T07:47:55.926Z,11.95
2023-01-21T07:50:25.848Z,7.32
2023-01-21T07:52:55.862Z,7.63
2023-01-21T07:55:22.845Z,9.32
2023-01-21T07:57:49.707Z,11.20
2023-01-21T08:00:17.556Z,12.75
2023-01-21T08:02:44.865Z,11.05
2023-01-21T08:05:11.808Z,11.00
2023-01-21T08:07:38.758Z,14.05
2023-01-21T08:10:05.890Z,15.48
2023-01-21T08:12:32.744Z,11.63
2023-01-21T08:14:59.724Z,13.73
2023-01-21T08:17:27.432Z,11.02
2023-01-21T08:19:54.353Z,13.45
2023-01-21T08:22:21.311Z,11.70
2023-01-21T08:24:48.148Z,11.25
2023-01-21T08:27:16.450Z,8.07
2023-01-21T08:29:43.322Z,8.02
2023-01-21T08:32:10.314Z,9.20
2023-01-21T08:34:37.368Z,13.05
2023-01-21T08:37:04.301Z,14.60
2023-01-21T08:39:31.275Z,9.15
2023-01-21T08:41:58.186Z,23.13
2023-01-21T08:44:25.130Z,18.73
2023-01-21T08:46:52.085Z,17.80
2023-01-21T08:49:19.047Z,15.15
2023-01-21T08:51:46.065Z,12.90
2023-01-21T08:54:12.917Z,13.68
2023-01-21T08:56:39.814Z,12.80
2023-01-21T08:59:07.074Z,10.43
2023-01-21T09:01:36.225Z,17.52
2023-01-21T09:04:03.216Z,14.38
2023-01-21T09:06:30.521Z,12.18
2023-01-21T09:08:58.459Z,16.88
2023-01-21T09:11:27.507Z,12.55
2023-01-21T09:13:54.523Z,12.65
2023-01-21T09:16:23.255Z,15.40
2023-01-21T09:18:50.499Z,18.13
2023-01-21T09:21:17.737Z,12.18
2023-01-21T09:23:44.666Z,14.75
2023-01-21T09:26:20.648Z,12.32
2023-01-21T09:29:01.651Z,18.02
2023-01-21T09:31:30.751Z,18.38
2023-01-21T09:34:03.888Z,14.95
2023-01-21T09:36:34.255Z,15.38
2023-01-21T09:39:01.283Z,12.82
2023-01-21T09:41:40.323Z,14.02
2023-01-21T09:44:44.841Z,16.00
2023-01-21T09:47:38.072Z,15.38
2023-01-21T09:50:25.512Z,14.63
2023-01-21T09:53:04.634Z,14.15
2023-01-21T09:55:47.226Z,17.10
2023-01-21T09:58:20.797Z,14.93
2023-01-21T10:01:19.672Z,11.98
2023-01-21T10:04:04.401Z,13.25
2023-01-21T10:07:15.689Z,13.73
2023-01-21T10:09:49.315Z,25.25
2023-01-21T10:12:51.385Z,20.45
2023-01-21T10:15:24.345Z,15.55
2023-01-21T10:20:58.977Z,16.45
2023-01-21T10:23:47.773Z,16.27
2023-01-21T10:26:16.936Z,15.85
2023-01-21T10:28:54.263Z,15.50
2023-01-21T10:31:29.424Z,10.55
2023-01-21T10:33:57.196Z,11.15
2023-01-21T10:37:03.064Z,11.50
2023-01-21T10:40:17.475Z,12.18
2023-01-21T10:43:05.875Z,11.30
2023-01-21T10:46:11.201Z,10.45
2023-01-21T10:49:17.759Z,12.95
2023-01-21T10:52:06.295Z,17.10
2023-01-21T10:54:58.732Z,15.00
2023-01-21T10:57:46.383Z,9.97
2023-01-21T11:00:38.654Z,12.00
2023-01-21T11:03:17.085Z,15.25
2023-01-21T11:05:44.990Z,19.15
2023-01-21T11:08:22.761Z,9.32
2023-01-21T11:10:55.482Z,12.90
2023-01-21T11:13:23.739Z,9.50
2023-01-21T11:15:54.992Z,10.15
2023-01-21T11:18:43.138Z,11.65
2023-01-21T11:21:18.999Z,9.60
2023-01-21T11:24:01.727Z,12.48
2023-01-21T11:26:36.385Z,11.25
2023-01-21T11:29:17.777Z,10.63
2023-01-21T11:31:48.952Z,13.35
2023-01-21T11:34:20.890Z,11.00
2023-01-21T11:37:28.160Z,13.52
2023-01-21T11:40:20.916Z,10.07
2023-01-21T11:42:56.711Z,12.45
2023-01-21T11:45:33.184Z,8.85
2023-01-21T11:48:00.972Z,10.50
2023-01-21T11:50:39.525Z,12.23
2023-01-21T11:53:14.359Z,9.00
2023-01-21T11:55:46.659Z,10.15
2023-01-21T11:58:41.428Z,9.50
2023-01-21T12:01:21.499Z,9.25
2023-01-21T12:04:00.912Z,10.25
2023-01-21T12:06:30.823Z,12.32
2023-01-21T12:09:04.649Z,6.68
2023-01-21T12:11:32.720Z,9.07
2023-01-21T12:14:26.887Z,10.60
2023-01-21T12:17:28.049Z,9.60
2023-01-21T12:20:22.142Z,9.43
2023-01-21T12:23:03.598Z,9.02
2023-01-21T12:25:59.589Z,10.63
2023-01-21T12:28:38.323Z,9.57
2023-01-21T12:31:30.040Z,9.30
2023-01-21T12:34:09.858Z,7.65
2023-01-21T12:36:45.147Z,7.22
2023-01-21T12:39:43.367Z,7.88
2023-01-21T12:42:29.251Z,6.70
2023-01-21T12:45:24.679Z,5.90
2023-01-21T12:48:03.475Z,7.90
2023-01-21T12:50:41.311Z,5.85
2023-01-21T12:53:37.729Z,8.30
2023-01-21T12:56:26.564Z,5.47
2023-01-21T12:59:07.739Z,4.75
2023-01-21T13:01:53.721Z,8.02
2023-01-21T13:04:58.479Z,7.57
2023-01-21T13:07:49.681Z,6.30
2023-01-21T13:10:43.149Z,4.75
2023-01-21T13:16:15.336Z,4.82
2023-01-21T13:18:53.648Z,3.72
2023-01-21T13:21:49.807Z,4.00
2023-01-21T13:24:59.487Z,3.33
2023-01-21T13:27:44.650Z,5.45
2023-01-21T13:30:28.060Z,5.95
2023-01-21T13:33:06.901Z,2.80
2023-01-21T13:35:38.923Z,3.53
2023-01-21T13:38:23.693Z,23.03
2023-01-21T13:41:31.849Z,13.82
2023-01-21T13:45:03.289Z,16.45
2023-01-21T13:48:14.708Z,19.42
2023-01-21T13:51:10.791Z,20.60
2023-01-21T13:54:11.466Z,25.85
2023-01-21T13:57:00.321Z,22.98
2023-01-21T14:00:13.350Z,12.43
2023-01-21T14:03:06.680Z,7.40
2023-01-21T14:08:31.199Z,7.00
2023-01-21T14:11:15.257Z,10.40
2023-01-21T14:14:24.516Z,5.57
2023-01-21T14:16:59.822Z,8.70
2023-01-21T14:20:07.416Z,7.20
2023-01-21T14:23:10.754Z,7.80
2023-01-21T14:26:14.118Z,13.00
2023-01-21T14:29:29.831Z,10.27
2023-01-21T14:32:27.016Z,7.15
2023-01-21T14:36:02.693Z,5.88
2023-01-21T14:38:51.139Z,4.47
2023-01-21T14:41:24.239Z,7.82
2023-01-21T14:46:29.845Z,5.03
2023-01-21T14:49:09.178Z,9.55
2023-01-21T14:51:43.157Z,5.32
2023-01-21T14:54:25.535Z,5.40
2023-01-21T14:57:18.298Z,7.25
2023-01-21T14:59:46.885Z,5.85
2023-01-21T15:02:41.420Z,9.75
2023-01-21T15:05:19.078Z,8.07
2023-01-21T15:07:49.631Z,10.13
2023-01-21T15:10:29.167Z,7.90
2023-01-21T15:13:02.515Z,7.32
2023-01-21T15:15:39.972Z,9.07
2023-01-21T15:18:09.528Z,9.30
2023-01-21T15:20:42.381Z,7.80
2023-01-21T15:23:30.223Z,6.85
2023-01-21T15:26:05.959Z,7.80
2023-01-21T15:28:47.787Z,9.20
2023-01-21T15:31:20.712Z,8.75
2023-01-21T15:34:14.875Z,10.75
2023-01-21T15:36:52.989Z,9.18
2023-01-21T15:39:32.506Z,9.63
2023-01-21T15:42:24.246Z,9.20
2023-01-21T15:45:29.606Z,9.52
2023-01-21T15:48:41.314Z,8.57
2023-01-21T15:51:33.466Z,9.38
2023-01-21T15:54:33.981Z,9.38
2023-01-21T15:57:06.505Z,11.70
2023-01-21T15:59:51.645Z,11.25
2023-01-21T16:02:27.376Z,10.98
2023-01-21T16:05:17.385Z,10.38
2023-01-21T16:07:58.025Z,12.07
2023-01-21T16:11:07.114Z,11.02
2023-01-21T16:14:06.790Z,13.60
2023-01-21T16:17:21.747Z,17.73
2023-01-21T16:19:54.778Z,13.82
2023-01-21T16:22:29.505Z,14.77
2023-01-21T16:25:08.104Z,18.00
2023-01-21T16:27:36.124Z,12.77
2023-01-21T16:30:13.423Z,13.07
2023-01-21T16:32:40.425Z,14.15
2023-01-21T16:35:08.057Z,11.25
2023-01-21T16:37:35.636Z,12.25
2023-01-21T16:40:29.911Z,16.45
2023-01-21T16:43:25.073Z,15.77
2023-01-21T16:46:03.387Z,18.95
2023-01-21T16:48:33.870Z,18.05
2023-01-21T16:51:02.030Z,16.20
2023-01-21T16:53:30.770Z,22.33
2023-01-21T16:55:59.699Z,18.35
2023-01-21T16:58:32.617Z,15.48
2023-01-21T17:03:29.093Z,17.05
2023-01-21T17:06:09.071Z,17.05
2023-01-21T17:08:40.102Z,19.67
2023-01-21T17:11:14.601Z,18.15
2023-01-21T17:13:44.585Z,17.83
2023-01-21T17:16:36.394Z,16.60
2023-01-21T17:19:22.038Z,17.85
2023-01-21T17:21:55.528Z,15.57
2023-01-21T17:24:54.405Z,19.52
2023-01-21T17:27:23.388Z,18.27
2023-01-21T17:29:50.397Z,16.40
2023-01-21T17:32:31.524Z,16.25
2023-01-21T17:35:18.056Z,17.17
2023-01-21T17:38:00.923Z,15.88
2023-01-21T17:40:47.624Z,13.00
2023-01-21T17:43:23.917Z,15.95
2023-01-21T17:45:54.685Z,17.40
2023-01-21T17:48:35.080Z,17.98
2023-01-21T17:51:20.532Z,13.02
2023-01-21T17:53:57.007Z,26.15
2023-01-21T17:56:54.804Z,22.23
2023-01-21T17:59:41.801Z,13.98
2023-01-21T18:02:21.960Z,16.95
2023-01-21T18:04:49.130Z,18.27
2023-01-21T18:07:27.622Z,18.92
2023-01-21T18:09:59.028Z,14.27
2023-01-21T18:12:26.080Z,13.88
2023-01-21T18:14:53.174Z,15.07
2023-01-21T18:17:25.755Z,17.02
2023-01-21T18:19:53.910Z,15.23
2023-01-21T18:22:28.393Z,15.93
2023-01-21T18:24:55.423Z,14.77
2023-01-21T18:27:25.968Z,16.38
2023-01-21T18:29:53.876Z,18.60
2023-01-21T18:32:20.804Z,20.13
2023-01-21T18:34:47.693Z,19.85
2023-01-21T18:37:18.377Z,15.80
2023-01-21T18:39:45.651Z,20.67
2023-01-21T18:42:15.761Z,17.45
2023-01-21T18:44:43.174Z,17.92
2023-01-21T18:47:14.180Z,18.45
2023-01-21T18:49:42.109Z,16.25
2023-01-21T18:52:18.344Z,16.70
2023-01-21T18:54:45.399Z,22.02
2023-01-21T18:57:19.767Z,22.35
2023-01-21T18:59:46.693Z,21.17
2023-01-21T19:02:20.496Z,17.70
2023-01-21T19:04:48.521Z,17.40
2023-01-21T19:07:23.127Z,15.65
2023-01-21T19:09:51.408Z,21.90
2023-01-21T19:12:24.543Z,33.40
2023-01-21T19:14:51.449Z,22.35
2023-01-21T19:17:33.186Z,24.17
2023-01-21T19:20:00.324Z,30.40
2023-01-21T19:22:27.604Z,28.80
2023-01-21T19:24:54.752Z,21.08
2023-01-21T19:27:37.540Z,27.75
2023-01-21T19:30:32.465Z,30.25
2023-01-21T19:33:03.487Z,30.27
2023-01-21T19:35:43.307Z,18.48
2023-01-21T19:38:22.125Z,19.70
2023-01-21T19:40:48.981Z,21.48
2023-01-21T19:43:21.628Z,21.60
2023-01-21T19:45:51.890Z,20.58
2023-01-21T19:48:21.489Z,21.10
2023-01-21T19:50:49.402Z,18.42
2023-01-21T19:53:20.913Z,19.40
2023-01-21T19:55:49.903Z,18.88
2023-01-21T19:58:22.234Z,19.10
2023-01-21T20:00:53.480Z,14.02
2023-01-21T20:03:24.792Z,21.08
2023-01-21T20:05:57.892Z,20.17
2023-01-21T20:08:28.491Z,17.58
2023-01-21T20:10:55.774Z,21.85
2023-01-21T20:13:22.918Z,17.58
2023-01-21T20:15:52.525Z,16.42
2023-01-21T20:18:26.359Z,14.95
2023-01-21T20:20:54.479Z,20.80
2023-01-21T20:23:23.651Z,21.58
2023-01-21T20:25:59.781Z,31.67
2023-01-21T20:28:43.306Z,26.02
2023-01-21T20:31:11.674Z,25.60
2023-01-21T20:33:39.384Z,24.50
2023-01-21T20:36:16.554Z,28.35
2023-01-21T20:38:43.591Z,21.25
2023-01-21T20:41:13.597Z,24.90
2023-01-21T20:43:41.828Z,25.65
2023-01-21T20:46:23.957Z,24.38
2023-01-21T20:48:51.740Z,19.20
2023-01-21T20:51:20.436Z,23.13
2023-01-21T20:53:47.619Z,18.83
2023-01-21T20:56:35.893Z,21.67
2023-01-21T20:59:03.032Z,24.75
2023-01-21T21:01:34.486Z,22.42
2023-01-21T21:04:01.757Z,17.60
2023-01-21T21:06:29.916Z,17.00
2023-01-21T21:08:57.437Z,16.88
2023-01-21T21:11:24.543Z,19.75
2023-01-21T21:13:52.454Z,19.42
2023-01-21T21:16:31.552Z,17.65
2023-01-21T21:19:00.492Z,18.80
2023-01-21T21:21:27.526Z,21.25
2023-01-21T21:23:54.453Z,17.20
2023-01-21T21:26:27.523Z,15.00
2023-01-21T21:28:55.213Z,16.63
2023-01-21T21:31:23.489Z,19.13
2023-01-21T21:33:50.969Z,16.45
2023-01-21T21:36:21.856Z,15.43
2023-01-21T21:38:49.156Z,16.15
2023-01-21T21:41:44.820Z,16.95
2023-01-21T21:44:14.273Z,14.75
2023-01-21T21:47:00.209Z,15.27
2023-01-21T21:49:28.418Z,17.80
2023-01-21T21:51:55.504Z,18.02
2023-01-21T21:54:23.614Z,20.13
2023-01-21T21:56:50.875Z,16.90
2023-01-21T21:59:17.846Z,17.25
2023-01-21T22:01:44.979Z,17.38
2023-01-21T22:04:12.270Z,17.98
2023-01-21T22:06:39.563Z,19.30
2023-01-21T22:09:07.452Z,16.67
2023-01-21T22:11:35.182Z,24.80
2023-01-21T22:14:05.275Z,20.73
2023-01-21T22:16:33.491Z,22.20
2023-01-21T22:19:01.541Z,18.60
2023-01-21T22:21:32.814Z,19.88
2023-01-21T22:24:02.745Z,18.05
2023-01-21T22:26:30.514Z,16.67
2023-01-21T22:28:57.767Z,21.60
2023-01-21T22:31:29.015Z,16.63
2023-01-21T22:33:57.886Z,18.42
2023-01-21T22:36:30.054Z,16.88
2023-01-21T22:38:57.763Z,16.63
2023-01-21T22:41:26.161Z,14.98
2023-01-21T22:43:54.071Z,20.05
2023-01-21T22:46:29.371Z,18.42
2023-01-21T22:48:56.954Z,16.95
2023-01-21T22:51:24.441Z,17.35
2023-01-21T22:53:52.648Z,16.02
2023-01-21T22:56:44.956Z,16.25
2023-01-21T22:59:12.794Z,19.27
2023-01-21T23:01:40.260Z,16.63
2023-01-21T23:04:07.230Z,16.73
2023-01-21T23:06:35.642Z,16.02
2023-01-21T23:09:04.636Z,16.77
2023-01-21T23:11:32.576Z,18.90
2023-01-21T23:13:59.653Z,25.08
2023-01-21T23:16:26.983Z,29.15
2023-01-21T23:18:53.924Z,24.45
2023-01-21T23:21:22.234Z,19.20
2023-01-21T23:23:50.125Z,19.50
2023-01-21T23:26:19.230Z,26.00
2023-01-21T23:28:47.218Z,21.42
2023-01-21T23:31:17.231Z,24.60
2023-01-21T23:33:44.548Z,32.05
2023-01-21T23:36:15.764Z,20.83
2023-01-21T23:38:43.295Z,17.55
2023-01-21T23:41:16.793Z,27.38
2023-01-21T23:43:44.140Z,28.25
2023-01-21T23:46:16.374Z,27.00
2023-01-21T23:48:43.456Z,23.63
2023-01-21T23:51:15.180Z,18.70
2023-01-21T23:53:42.441Z,19.42
2023-01-21T23:56:22.842Z,22.88
2023-01-21T23:58:50.624Z,20.33
